Terminal Aerodrome Forecast
Issued by NWS

Home | Current Version | Previous Version | Text Only | Print | Product List | Glossary On
Versions: 1 2 3 4 5 6 7 8 9 10 11 12 13 14
000
FTUS41 KCAR 260500
TAFFVE
TAF
KFVE 260534Z 2606/2706 26007KT P6SM FEW090
     FM261100 22007KT P6SM SCT070
     FM261800 23010KT P6SM BKN060=

USA.gov is the U.S. government's official web portal to all federal, state and local government web resources and services.